createdAt,value
2023-07-12T00:00:51.884Z,100470.88
2023-07-12T00:03:53.580Z,100474.38
2023-07-12T00:06:55.239Z,100471.50
2023-07-12T00:09:56.822Z,100469.41
2023-07-12T00:12:58.728Z,100481.16
2023-07-12T00:16:00.431Z,100474.16
2023-07-12T00:19:03.118Z,100465.53
2023-07-12T00:22:05.056Z,100460.53
2023-07-12T00:25:06.958Z,100449.56
2023-07-12T00:28:26.714Z,100460.75
2023-07-12T00:31:28.677Z,100470.44
2023-07-12T00:34:30.387Z,100466.72
2023-07-12T00:37:32.016Z,100461.56
2023-07-12T00:40:45.419Z,100456.38
2023-07-12T00:43:56.800Z,100448.34
2023-07-12T00:47:00.564Z,100446.47
2023-07-12T00:50:02.672Z,100448.97
2023-07-12T00:53:04.268Z,100461.16
2023-07-12T00:56:11.450Z,100437.00
2023-07-12T00:59:16.100Z,100437.41
2023-07-12T01:02:17.895Z,100425.44
2023-07-12T01:05:19.561Z,100427.53
2023-07-12T01:08:22.435Z,100422.56
2023-07-12T01:11:24.122Z,100427.53
2023-07-12T01:14:25.820Z,100415.53
2023-07-12T01:17:28.785Z,100412.03
2023-07-12T01:20:37.449Z,100397.97
2023-07-12T01:23:41.434Z,100401.88
2023-07-12T01:26:46.696Z,100400.66
2023-07-12T01:29:49.928Z,100395.69
2023-07-12T01:32:53.980Z,100391.16
2023-07-12T01:35:55.691Z,100399.22
2023-07-12T01:38:59.325Z,100395.06
2023-07-12T01:42:01.214Z,100401.69
2023-07-12T01:45:02.917Z,100398.38
2023-07-12T01:48:04.869Z,100414.06
2023-07-12T01:51:06.964Z,100407.25
2023-07-12T01:54:09.026Z,100396.78
2023-07-12T01:57:10.707Z,100409.34
2023-07-12T02:00:12.915Z,100410.19
2023-07-12T02:03:15.004Z,100416.75
2023-07-12T02:06:16.852Z,100424.38
2023-07-12T02:09:18.433Z,100420.88
2023-07-12T02:12:20.051Z,100421.31
2023-07-12T02:15:21.694Z,100412.00
2023-07-12T02:18:23.480Z,100416.75
2023-07-12T02:21:25.258Z,100414.06
2023-07-12T02:24:26.879Z,100416.34
2023-07-12T02:27:28.571Z,100408.06
2023-07-12T02:30:31.045Z,100401.88
2023-07-12T02:33:32.804Z,100403.34
2023-07-12T02:36:34.401Z,100408.28
2023-07-12T02:39:36.018Z,100412.25
2023-07-12T02:42:38.097Z,100393.22
2023-07-12T02:45:39.733Z,100400.25
2023-07-12T02:48:41.449Z,100403.34
2023-07-12T02:51:43.058Z,100399.84
2023-07-12T02:54:45.015Z,100389.75
2023-07-12T02:57:46.578Z,100379.38
2023-07-12T03:00:48.447Z,100378.16
2023-07-12T03:03:50.118Z,100367.84
2023-07-12T03:06:51.784Z,100367.47
2023-07-12T03:09:57.738Z,100362.47
2023-07-12T03:12:59.411Z,100359.59
2023-07-12T03:16:05.327Z,100365.38
2023-07-12T03:19:06.975Z,100370.94
2023-07-12T03:22:08.595Z,100360.22
2023-07-12T03:25:10.190Z,100370.97
2023-07-12T03:28:11.774Z,100386.63
2023-07-12T03:31:16.908Z,100385.19
2023-07-12T03:34:18.741Z,100382.94
2023-07-12T03:37:21.206Z,100396.53
2023-07-12T03:40:22.830Z,100390.97
2023-07-12T03:43:25.334Z,100411.78
2023-07-12T03:46:26.974Z,100425.63
2023-07-12T03:49:29.395Z,100413.25
2023-07-12T03:52:31.027Z,100424.59
2023-07-12T03:55:32.642Z,100421.31
2023-07-12T03:58:39.362Z,100406.84
2023-07-12T04:01:40.901Z,100412.47
2023-07-12T04:04:42.893Z,100417.19
2023-07-12T04:07:44.647Z,100405.81
2023-07-12T04:10:46.835Z,100405.81
2023-07-12T04:13:48.467Z,100387.41
2023-07-12T04:16:50.144Z,100394.03
2023-07-12T04:19:51.792Z,100389.47
2023-07-12T04:22:53.838Z,100400.00
2023-07-12T04:26:02.944Z,100401.63
2023-07-12T04:29:04.613Z,100411.97
2023-07-12T04:32:06.959Z,100416.91
2023-07-12T04:35:09.378Z,100424.38
2023-07-12T04:38:11.005Z,100432.00
2023-07-12T04:41:13.493Z,100423.13
2023-07-12T04:44:15.217Z,100441.25
2023-07-12T04:47:17.428Z,100437.97
2023-07-12T04:50:19.241Z,100409.41
2023-07-12T04:53:22.394Z,100392.22
2023-07-12T04:56:24.007Z,100381.38
2023-07-12T04:59:25.567Z,100358.44
2023-07-12T05:02:27.215Z,100362.91
2023-07-12T05:05:28.860Z,100398.34
2023-07-12T05:08:30.431Z,100394.63
2023-07-12T05:11:32.528Z,100370.59
2023-07-12T05:14:34.280Z,100367.66
2023-07-12T05:17:36.664Z,100361.09
2023-07-12T05:20:38.421Z,100353.72
2023-07-12T05:23:41.290Z,100373.22
2023-07-12T05:26:43.074Z,100379.13
2023-07-12T05:29:45.030Z,100379.69
2023-07-12T05:32:53.258Z,100381.56
2023-07-12T05:35:54.878Z,100364.97
2023-07-12T05:38:57.507Z,100366.59
2023-07-12T05:41:59.158Z,100371.69
2023-07-12T05:45:00.884Z,100360.91
2023-07-12T05:48:02.571Z,100369.88
2023-07-12T05:51:05.286Z,100358.50
2023-07-12T05:54:06.977Z,100369.53
2023-07-12T05:57:08.593Z,100357.84
2023-07-12T06:00:11.800Z,100340.53
2023-07-12T06:03:13.547Z,100329.91
2023-07-12T06:06:15.356Z,100344.44
2023-07-12T06:09:17.085Z,100337.19
2023-07-12T06:12:18.825Z,100346.72
2023-07-12T06:15:20.454Z,100342.56
2023-07-12T06:18:22.244Z,100347.16
2023-07-12T06:21:24.138Z,100326.81
2023-07-12T06:24:25.848Z,100345.25
2023-07-12T06:27:27.498Z,100347.78
2023-07-12T06:30:29.175Z,100347.06
2023-07-12T06:33:32.277Z,100351.97
2023-07-12T06:36:34.706Z,100349.97
2023-07-12T06:39:37.660Z,100348.34
2023-07-12T06:42:39.313Z,100349.56
2023-07-12T06:45:40.938Z,100343.38
2023-07-12T06:48:42.695Z,100340.34
2023-07-12T06:51:47.907Z,100333.75
2023-07-12T06:54:49.481Z,100328.78
2023-07-12T06:57:51.101Z,100320.56
2023-07-12T07:00:52.738Z,100320.59
2023-07-12T07:03:54.455Z,100312.50
2023-07-12T07:06:56.103Z,100308.19
2023-07-12T07:09:57.802Z,100298.72
2023-07-12T07:12:59.531Z,100284.84
2023-07-12T07:16:01.239Z,100276.66
2023-07-12T07:19:03.590Z,100273.03
2023-07-12T07:22:06.217Z,100265.09
2023-07-12T07:25:16.209Z,100264.19
2023-07-12T07:28:22.321Z,100260.63
2023-07-12T07:31:24.039Z,100251.41
2023-07-12T07:34:25.782Z,100255.13
2023-07-12T07:37:27.425Z,100248.41
2023-07-12T07:40:29.264Z,100242.19
2023-07-12T07:43:31.042Z,100235.91
2023-07-12T07:46:32.695Z,100237.03
2023-07-12T07:49:34.379Z,100249.84
2023-07-12T07:52:36.052Z,100244.34
2023-07-12T07:55:42.633Z,100239.69
2023-07-12T07:58:44.349Z,100228.97
2023-07-12T08:01:46.035Z,100204.13
2023-07-12T08:04:47.819Z,100197.53
2023-07-12T08:07:49.494Z,100189.19
2023-07-12T08:10:51.361Z,100170.88
2023-07-12T08:13:52.966Z,100175.38
2023-07-12T08:16:54.549Z,100179.44
2023-07-12T08:19:56.242Z,100182.47
2023-07-12T08:22:57.930Z,100169.25
2023-07-12T08:25:59.717Z,100169.56
2023-07-12T08:29:01.302Z,100168.78
2023-07-12T08:32:06.274Z,100167.09
2023-07-12T08:35:11.535Z,100165.69
2023-07-12T08:38:13.218Z,100174.78
2023-07-12T08:41:18.073Z,100167.88
2023-07-12T08:44:20.042Z,100174.91
2023-07-12T08:47:36.533Z,100177.53
2023-07-12T08:50:47.049Z,100169.41
2023-07-12T08:53:48.767Z,100173.84
2023-07-12T08:57:15.407Z,100182.59
2023-07-12T09:00:22.112Z,100181.28
2023-07-12T09:03:23.844Z,100186.00
2023-07-12T09:06:25.496Z,100190.16
2023-07-12T09:09:28.934Z,100188.09
2023-07-12T09:12:36.357Z,100190.63
2023-07-12T09:15:43.781Z,100188.31
2023-07-12T09:18:47.369Z,100195.38
2023-07-12T09:21:57.681Z,100195.09
2023-07-12T09:24:59.324Z,100198.00
2023-07-12T09:28:00.982Z,100209.38
2023-07-12T09:31:29.978Z,100216.47
2023-07-12T09:34:34.635Z,100217.59
2023-07-12T09:37:38.307Z,100209.78
2023-07-12T09:40:45.844Z,100221.88
2023-07-12T09:43:55.748Z,100223.63
2023-07-12T09:47:04.195Z,100227.22
2023-07-12T09:50:11.698Z,100215.47
2023-07-12T09:53:43.804Z,100222.91
2023-07-12T09:56:54.824Z,100219.63
2023-07-12T10:00:20.905Z,100226.75
2023-07-12T10:03:27.496Z,100213.94
2023-07-12T10:06:43.569Z,100222.13
2023-07-12T10:09:49.134Z,100217.38
2023-07-12T10:13:13.535Z,100222.56
2023-07-12T10:16:20.565Z,100225.75
2023-07-12T10:19:30.199Z,100207.63
2023-07-12T10:22:40.186Z,100212.28
2023-07-12T10:25:47.438Z,100208.19
2023-07-12T10:29:06.944Z,100201.63
2023-07-12T10:32:20.151Z,100194.81
2023-07-12T10:35:45.998Z,100197.84
2023-07-12T10:38:49.166Z,100198.66
2023-07-12T10:41:56.556Z,100207.88
2023-07-12T10:45:00.075Z,100192.47
2023-07-12T10:48:03.926Z,100187.03
2023-07-12T10:51:28.383Z,100188.81
2023-07-12T10:54:32.879Z,100189.78
2023-07-12T10:57:47.218Z,100193.00
2023-07-12T11:00:52.477Z,100191.72
2023-07-12T11:04:11.113Z,100191.50
2023-07-12T11:07:15.823Z,100197.56
2023-07-12T11:10:23.998Z,100196.22
2023-07-12T11:13:33.728Z,100201.44
2023-07-12T11:16:45.542Z,100208.75
2023-07-12T11:19:51.853Z,100209.56
2023-07-12T11:22:58.489Z,100202.09
2023-07-12T11:26:31.283Z,100203.03
2023-07-12T11:29:35.819Z,100200.25
2023-07-12T11:32:39.707Z,100185.53
2023-07-12T11:35:48.983Z,100207.88
2023-07-12T11:38:51.835Z,100199.31
2023-07-12T11:41:56.119Z,100196.13
2023-07-12T11:45:07.418Z,100192.88
2023-07-12T11:48:09.646Z,100189.16
2023-07-12T11:51:19.983Z,100193.59
2023-07-12T11:54:23.496Z,100201.63
2023-07-12T11:57:25.081Z,100191.06
2023-07-12T12:00:31.405Z,100192.84
2023-07-12T12:03:33.089Z,100195.16
2023-07-12T12:06:36.405Z,100196.91
2023-07-12T12:09:38.939Z,100207.00
2023-07-12T12:12:41.458Z,100201.47
2023-07-12T12:16:18.597Z,100194.31
2023-07-12T12:19:21.652Z,100192.69
2023-07-12T12:22:25.893Z,100202.94
2023-07-12T12:25:31.859Z,100200.81
2023-07-12T12:28:37.079Z,100197.41
2023-07-12T12:31:49.680Z,100195.88
2023-07-12T12:34:54.744Z,100177.66
2023-07-12T12:38:06.353Z,100182.16
2023-07-12T12:41:14.243Z,100180.97
2023-07-12T12:44:18.905Z,100176.31
2023-07-12T12:47:22.700Z,100169.38
2023-07-12T12:53:33.679Z,100159.66
2023-07-12T13:06:06.094Z,100169.03
2023-07-12T13:21:42.541Z,100164.41
2023-07-12T13:24:45.203Z,100157.72
2023-07-12T13:27:55.089Z,100173.97
2023-07-12T13:30:56.781Z,100154.75
2023-07-12T13:40:34.906Z,100160.69
2023-07-12T13:46:43.523Z,100158.56
2023-07-12T13:49:48.552Z,100158.06
2023-07-12T13:52:51.135Z,100155.44
2023-07-12T13:56:00.180Z,100145.75
2023-07-12T13:59:16.760Z,100139.69
2023-07-12T14:08:40.774Z,100146.78
2023-07-12T14:11:42.843Z,100141.78
2023-07-12T14:14:46.907Z,100131.44
2023-07-12T14:17:48.591Z,100137.75
2023-07-12T14:20:50.674Z,100137.78
2023-07-12T14:23:52.408Z,100128.38
2023-07-12T14:26:54.050Z,100128.06
2023-07-12T14:33:05.984Z,100119.69
2023-07-12T14:36:08.014Z,100119.97
2023-07-12T14:39:09.838Z,100113.91
2023-07-12T14:42:23.286Z,100128.31
2023-07-12T14:45:26.214Z,100109.88
2023-07-12T14:48:27.859Z,100104.44
2023-07-12T14:51:31.927Z,100103.34
2023-07-12T14:54:41.993Z,100107.19
2023-07-12T15:00:55.174Z,100100.06
2023-07-12T15:04:08.827Z,100094.28
2023-07-12T15:07:35.054Z,100102.03
2023-07-12T15:10:36.672Z,100095.25
2023-07-12T15:13:38.387Z,100078.03
2023-07-12T15:16:43.194Z,100078.78
2023-07-12T15:19:44.804Z,100083.38
2023-07-12T15:22:47.130Z,100082.78
2023-07-12T15:25:48.952Z,100088.19
2023-07-12T15:28:50.604Z,100078.78
2023-07-12T15:31:52.252Z,100073.53
2023-07-12T15:34:53.937Z,100082.31
2023-07-12T15:38:03.673Z,100080.06
2023-07-12T15:41:20.558Z,100084.84
2023-07-12T15:44:23.233Z,100085.06
2023-07-12T15:47:25.668Z,100086.22
2023-07-12T15:50:27.577Z,100092.22
2023-07-12T15:53:29.188Z,100096.75
2023-07-12T15:56:36.734Z,100105.16
2023-07-12T15:59:40.511Z,100104.63
2023-07-12T16:02:42.176Z,100113.22
2023-07-12T16:05:43.864Z,100119.00
2023-07-12T16:08:46.898Z,100124.19
2023-07-12T16:11:48.736Z,100129.44
2023-07-12T16:14:50.383Z,100133.06
2023-07-12T16:17:52.092Z,100123.75
2023-07-12T16:20:56.988Z,100133.84
2023-07-12T16:23:59.815Z,100131.59
2023-07-12T16:27:01.479Z,100127.34
2023-07-12T16:30:03.167Z,100119.78
2023-07-12T16:33:21.714Z,100114.31
2023-07-12T16:36:24.821Z,100114.75
2023-07-12T16:39:26.540Z,100118.00
2023-07-12T16:42:29.713Z,100115.44
2023-07-12T16:45:31.467Z,100116.97
2023-07-12T16:48:35.029Z,100113.84
2023-07-12T16:52:00.347Z,100114.38
2023-07-12T16:55:02.077Z,100116.22
2023-07-12T16:58:15.187Z,100119.63
2023-07-12T17:01:22.979Z,100111.31
2023-07-12T17:04:25.452Z,100115.44
2023-07-12T17:07:27.152Z,100105.81
2023-07-12T17:10:28.922Z,100105.41
2023-07-12T17:13:31.004Z,100119.03
2023-07-12T17:16:32.659Z,100122.94
2023-07-12T17:19:34.397Z,100130.75
2023-07-12T17:22:36.747Z,100143.91
2023-07-12T17:25:38.448Z,100141.88
2023-07-12T17:28:40.381Z,100139.91
2023-07-12T17:31:44.475Z,100131.38
2023-07-12T17:34:46.198Z,100130.38
2023-07-12T17:37:47.798Z,100129.59
2023-07-12T17:40:52.567Z,100126.16
2023-07-12T17:43:55.346Z,100136.59
2023-07-12T17:46:58.290Z,100151.31
2023-07-12T17:49:59.907Z,100156.00
2023-07-12T17:53:02.092Z,100155.47
2023-07-12T17:56:03.866Z,100159.78
2023-07-12T17:59:05.598Z,100166.59
2023-07-12T18:02:26.332Z,100158.19
2023-07-12T18:05:29.965Z,100173.75
2023-07-12T18:08:31.538Z,100173.25
2023-07-12T18:11:37.595Z,100170.56
2023-07-12T18:14:40.660Z,100172.47
2023-07-12T18:17:42.336Z,100174.94
2023-07-12T18:20:45.228Z,100172.78
2023-07-12T18:23:47.987Z,100185.28
2023-07-12T18:26:50.509Z,100176.00
2023-07-12T18:29:52.260Z,100187.94
2023-07-12T18:32:53.988Z,100193.84
2023-07-12T18:35:56.151Z,100186.94
2023-07-12T18:38:58.401Z,100190.09
2023-07-12T18:42:00.197Z,100199.00
2023-07-12T18:45:01.965Z,100201.41
2023-07-12T18:48:04.167Z,100205.34
2023-07-12T18:51:11.335Z,100205.81
2023-07-12T18:54:19.703Z,100209.63
2023-07-12T18:57:21.378Z,100216.16
2023-07-12T19:00:23.519Z,100221.28
2023-07-12T19:03:35.871Z,100218.78
2023-07-12T19:06:37.577Z,100224.41
2023-07-12T19:09:39.133Z,100227.94
2023-07-12T19:12:40.814Z,100223.44
2023-07-12T19:15:42.480Z,100233.69
2023-07-12T19:18:44.993Z,100230.03
2023-07-12T19:21:48.606Z,100244.75
2023-07-12T19:24:55.293Z,100225.28
2023-07-12T19:27:56.912Z,100238.34
2023-07-12T19:30:58.610Z,100238.19
2023-07-12T19:34:01.687Z,100233.41
2023-07-12T19:37:03.519Z,100227.28
2023-07-12T19:40:07.283Z,100229.38
2023-07-12T19:43:09.230Z,100219.63
2023-07-12T19:46:12.070Z,100228.06
2023-07-12T19:49:14.992Z,100224.13
2023-07-12T19:52:18.618Z,100231.59
2023-07-12T19:55:28.432Z,100232.66
2023-07-12T19:58:30.068Z,100225.47
2023-07-12T20:01:33.057Z,100221.53
2023-07-12T20:04:34.773Z,100237.66
2023-07-12T20:07:36.792Z,100243.56
2023-07-12T20:10:38.374Z,100237.81
2023-07-12T20:13:40.872Z,100234.31
2023-07-12T20:16:42.549Z,100244.31
2023-07-12T20:19:44.220Z,100246.94
2023-07-12T20:22:46.256Z,100238.38
2023-07-12T20:25:49.753Z,100239.84
2023-07-12T20:28:51.499Z,100240.94
2023-07-12T20:32:00.536Z,100243.22
2023-07-12T20:35:05.299Z,100229.84
2023-07-12T20:38:08.351Z,100233.03
2023-07-12T20:41:10.564Z,100232.09
2023-07-12T20:44:12.200Z,100227.66
2023-07-12T20:47:22.575Z,100229.28
2023-07-12T20:50:25.700Z,100228.94
2023-07-12T20:53:27.728Z,100225.22
2023-07-12T20:56:29.520Z,100233.63
2023-07-12T20:59:32.646Z,100231.28
2023-07-12T21:02:34.262Z,100240.22
2023-07-12T21:05:36.032Z,100238.06
2023-07-12T21:08:38.041Z,100241.38
2023-07-12T21:11:39.653Z,100235.28
2023-07-12T21:14:41.326Z,100239.97
2023-07-12T21:17:42.916Z,100239.47
2023-07-12T21:20:44.791Z,100233.50
2023-07-12T21:23:46.415Z,100227.72
2023-07-12T21:26:48.472Z,100223.66
2023-07-12T21:29:50.637Z,100225.16
2023-07-12T21:32:52.250Z,100225.41
2023-07-12T21:35:56.607Z,100228.91
2023-07-12T21:38:58.209Z,100231.94
2023-07-12T21:42:00.278Z,100235.56
2023-07-12T21:45:02.151Z,100234.97
2023-07-12T21:48:04.578Z,100237.56
2023-07-12T21:51:06.175Z,100250.44
2023-07-12T21:54:07.804Z,100243.94
2023-07-12T21:57:09.405Z,100257.22
2023-07-12T22:00:16.714Z,100268.47
2023-07-12T22:03:18.621Z,100274.22
2023-07-12T22:06:21.444Z,100271.59
2023-07-12T22:09:23.007Z,100267.28
2023-07-12T22:12:24.658Z,100279.91
2023-07-12T22:15:27.306Z,100274.75
2023-07-12T22:18:41.719Z,100273.84
2023-07-12T22:21:53.217Z,100279.13
2023-07-12T22:24:55.350Z,100275.78
2023-07-12T22:27:56.987Z,100273.28
2023-07-12T22:30:58.629Z,100286.75
2023-07-12T22:34:00.450Z,100304.81
2023-07-12T22:37:02.522Z,100319.81
2023-07-12T22:40:07.000Z,100312.75
2023-07-12T22:43:08.655Z,100315.91
2023-07-12T22:46:11.157Z,100318.59
2023-07-12T22:49:14.400Z,100312.22
2023-07-12T22:52:16.020Z,100300.84
2023-07-12T22:55:18.291Z,100292.00
2023-07-12T22:58:19.867Z,100292.09
2023-07-12T23:01:22.680Z,100288.50
2023-07-12T23:04:24.323Z,100307.41
2023-07-12T23:07:27.384Z,100311.03
2023-07-12T23:10:28.992Z,100304.72
2023-07-12T23:13:31.965Z,100306.59
2023-07-12T23:16:34.018Z,100295.22
2023-07-12T23:19:37.173Z,100307.19
2023-07-12T23:22:39.896Z,100299.31
2023-07-12T23:25:42.445Z,100297.78
2023-07-12T23:28:46.093Z,100296.94
2023-07-12T23:31:47.959Z,100301.16
2023-07-12T23:34:49.624Z,100315.91
2023-07-12T23:37:51.616Z,100307.31
2023-07-12T23:40:53.230Z,100317.78
2023-07-12T23:43:54.964Z,100341.31
2023-07-12T23:46:58.216Z,100355.59
2023-07-12T23:50:01.289Z,100346.81
2023-07-12T23:53:04.752Z,100353.03
2023-07-12T23:56:06.421Z,100351.31
2023-07-12T23:59:12.987Z,100349.78
